LiveATC.Net - Listen to live air traffic control over the Internet!


ICAO: CYVK  IATA: YVK   Airport: Vernon Airport
City: Vernon   State/Province: British Columbia
Country: Canada   Continent: North America
CYLW METAR Weather: CYLW 170100Z AUTO 00000KT 9SM CLR 12/04 A3037 RMK SLP301
CYVK Flight Activity (FlightAware)

CYVK CTAF/UNICOM
Feed Status: UP   Listeners: 1
Listen right in your browser - requires Flash (in browser, requires Flash)
Click here to listen with your own player (launches your MP3 player)
CYVK CTAF/UNICOM Audio Archives
FacilityFrequency
Vernon CTAF/UNICOM122.800

NOTICE

Unauthorized use prohibited. See LiveATC.net Terms of Service


Find LiveATC Audio Streams


Airport/ARTCC Code

Frequency Search
(e.g., 124.400, 128.75)
Site-wide search
 


Browse LiveATC Feeds
Top 50 LiveATC Feeds
Bad Weather Areas

LiveATC FAQ
Offer a LiveATC Feed
Contact LiveATC.net
Press Inquiries

LiveATC on iPhone
LiveATC on Android

Windows Phone
Windows 8/10

LiveATC Mobile
(Mobile browser)

ATC Audio Archives
Interesting Recordings

LiveATC Forums


Home Page
About LiveATC.net
Make a Donation
Terms of Use
Privacy Policy

Canadian Air Freqs

AIRMETs/SIGMETs

FAA Airport Status
Nat'l Airspace Status
Arrival Demand Charts


Server Software By:
Icecast.org
Liquidsoap